Famagusta, Cyprus
Current Conditions -  °F | °C
As of 1:50 AM on Thursday 27 Nov 2014 (Local Time) from LCEN Reporting Station
Few Clouds Few Clouds  
Wind Chill: 40°   Ceiling: Unl
Heat Index: 45°   Visibility: 6mi
Dew Point: 39°   Wind: 9mph
Humidity: 81%   Direction: 230°SW
Pressure: 29.91"   Gusts: NA
Location:  35.33°N, 34.07°E
Report Text: LCEN 262250Z 23008KT 9999 FEW030 07/04 Q1013 NOSIG
Loading
Personal Weather Stations






























Interactive Weather Map New forecast layout! Learn more

10-Day Weather Forecast

Advertisements
Track Severe Weather on mobile